sensor_id;sensor_type;location;lat;lon;timestamp;pressure;altitude;pressure_sealevel;temperature;humidity
56070;BME280;41944;52.078;-0.058;2022-10-22T00:00:29;99919.63;;;16.31;100.00
56070;BME280;41944;52.078;-0.058;2022-10-22T00:02:57;99924.90;;;16.25;100.00
56070;BME280;41944;52.078;-0.058;2022-10-22T00:05:24;99926.63;;;16.14;100.00
56070;BME280;41944;52.078;-0.058;2022-10-22T00:07:52;99931.38;;;16.16;100.00
56070;BME280;41944;52.078;-0.058;2022-10-22T00:10:20;99933.48;;;16.19;100.00
56070;BME280;41944;52.078;-0.058;2022-10-22T00:12:48;99931.69;;;16.03;100.00
56070;BME280;41944;52.078;-0.058;2022-10-22T00:15:15;99934.86;;;16.19;100.00
56070;BME280;41944;52.078;-0.058;2022-10-22T00:17:43;99932.62;;;16.28;100.00
56070;BME280;41944;52.078;-0.058;2022-10-22T00:20:11;99935.85;;;16.13;100.00
56070;BME280;41944;52.078;-0.058;2022-10-22T00:22:38;99940.80;;;16.11;100.00
56070;BME280;41944;52.078;-0.058;2022-10-22T00:25:07;99945.56;;;16.13;100.00
56070;BME280;41944;52.078;-0.058;2022-10-22T00:27:34;99954.49;;;16.13;100.00
56070;BME280;41944;52.078;-0.058;2022-10-22T00:30:03;99963.85;;;15.85;100.00
56070;BME280;41944;52.078;-0.058;2022-10-22T00:32:30;99969.92;;;15.86;100.00
56070;BME280;41944;52.078;-0.058;2022-10-22T00:34:58;99972.91;;;15.92;100.00
56070;BME280;41944;52.078;-0.058;2022-10-22T00:37:25;99968.67;;;16.00;100.00
56070;BME280;41944;52.078;-0.058;2022-10-22T00:39:53;99973.12;;;16.01;100.00
56070;BME280;41944;52.078;-0.058;2022-10-22T00:42:22;99975.93;;;15.84;100.00
56070;BME280;41944;52.078;-0.058;2022-10-22T00:45:16;99978.76;;;15.91;100.00
56070;BME280;41944;52.078;-0.058;2022-10-22T00:47:48;99980.22;;;15.85;100.00
56070;BME280;41944;52.078;-0.058;2022-10-22T00:50:19;99981.85;;;15.76;100.00
56070;BME280;41944;52.078;-0.058;2022-10-22T00:52:48;99984.68;;;15.77;100.00
56070;BME280;41944;52.078;-0.058;2022-10-22T00:55:17;99987.65;;;15.85;100.00
56070;BME280;41944;52.078;-0.058;2022-10-22T00:57:45;99989.89;;;15.83;100.00
56070;BME280;41944;52.078;-0.058;2022-10-22T01:00:14;99994.58;;;15.85;100.00
56070;BME280;41944;52.078;-0.058;2022-10-22T01:02:42;99999.91;;;15.80;100.00
56070;BME280;41944;52.078;-0.058;2022-10-22T01:05:09;100003.59;;;15.82;100.00
56070;BME280;41944;52.078;-0.058;2022-10-22T01:07:47;100009.50;;;15.76;100.00
56070;BME280;41944;52.078;-0.058;2022-10-22T01:10:30;100013.23;;;15.74;100.00
56070;BME280;41944;52.078;-0.058;2022-10-22T01:13:09;100019.00;;;15.65;100.00
56070;BME280;41944;52.078;-0.058;2022-10-22T01:15:44;100025.34;;;15.66;100.00
56070;BME280;41944;52.078;-0.058;2022-10-22T01:18:19;100033.62;;;15.71;100.00
56070;BME280;41944;52.078;-0.058;2022-10-22T01:20:57;100036.60;;;15.66;100.00
56070;BME280;41944;52.078;-0.058;2022-10-22T01:24:10;100038.12;;;15.66;100.00
56070;BME280;41944;52.078;-0.058;2022-10-22T01:26:55;100041.52;;;15.56;100.00
56070;BME280;41944;52.078;-0.058;2022-10-22T01:29:29;100042.09;;;15.63;100.00
56070;BME280;41944;52.078;-0.058;2022-10-22T01:32:03;100042.18;;;15.58;100.00
56070;BME280;41944;52.078;-0.058;2022-10-22T01:34:33;100045.63;;;15.59;100.00
56070;BME280;41944;52.078;-0.058;2022-10-22T01:37:02;100049.20;;;15.65;100.00
56070;BME280;41944;52.078;-0.058;2022-10-22T01:39:30;100053.04;;;15.61;100.00
56070;BME280;41944;52.078;-0.058;2022-10-22T01:41:59;100056.73;;;15.76;100.00
56070;BME280;41944;52.078;-0.058;2022-10-22T01:44:28;100060.51;;;15.72;100.00
56070;BME280;41944;52.078;-0.058;2022-10-22T01:47:04;100057.86;;;15.96;100.00
56070;BME280;41944;52.078;-0.058;2022-10-22T01:49:49;100059.84;;;15.93;100.00
56070;BME280;41944;52.078;-0.058;2022-10-22T01:52:29;100060.10;;;16.02;100.00
56070;BME280;41944;52.078;-0.058;2022-10-22T01:55:12;100064.22;;;16.07;100.00
56070;BME280;41944;52.078;-0.058;2022-10-22T01:57:51;100063.54;;;16.10;100.00
56070;BME280;41944;52.078;-0.058;2022-10-22T02:00:20;100068.21;;;16.06;100.00
56070;BME280;41944;52.078;-0.058;2022-10-22T02:02:55;100070.38;;;16.01;100.00
56070;BME280;41944;52.078;-0.058;2022-10-22T02:05:29;100069.13;;;16.08;100.00
56070;BME280;41944;52.078;-0.058;2022-10-22T02:08:02;100070.38;;;16.07;100.00
56070;BME280;41944;52.078;-0.058;2022-10-22T02:10:31;100079.72;;;15.95;100.00
56070;BME280;41944;52.078;-0.058;2022-10-22T02:13:00;100078.05;;;15.94;100.00
56070;BME280;41944;52.078;-0.058;2022-10-22T02:15:30;100079.29;;;15.85;100.00
56070;BME280;41944;52.078;-0.058;2022-10-22T02:17:59;100082.12;;;15.83;100.00
56070;BME280;41944;52.078;-0.058;2022-10-22T02:20:29;100080.72;;;15.88;100.00
56070;BME280;41944;52.078;-0.058;2022-10-22T02:22:59;100085.48;;;15.91;100.00
56070;BME280;41944;52.078;-0.058;2022-10-22T02:25:29;100092.17;;;15.81;100.00
56070;BME280;41944;52.078;-0.058;2022-10-22T02:28:03;100096.55;;;15.84;100.00
56070;BME280;41944;52.078;-0.058;2022-10-22T02:30:35;100097.60;;;15.76;100.00
56070;BME280;41944;52.078;-0.058;2022-10-22T02:33:08;100103.99;;;15.76;100.00
56070;BME280;41944;52.078;-0.058;2022-10-22T02:35:39;100107.86;;;15.62;100.00
56070;BME280;41944;52.078;-0.058;2022-10-22T02:38:08;100108.79;;;15.69;100.00
56070;BME280;41944;52.078;-0.058;2022-10-22T02:40:37;100107.40;;;15.56;100.00
56070;BME280;41944;52.078;-0.058;2022-10-22T02:43:05;100105.75;;;15.59;100.00
56070;BME280;41944;52.078;-0.058;2022-10-22T02:45:33;100110.42;;;15.60;100.00
56070;BME280;41944;52.078;-0.058;2022-10-22T02:48:01;100111.82;;;15.52;100.00
56070;BME280;41944;52.078;-0.058;2022-10-22T02:50:29;100115.77;;;15.43;100.00
56070;BME280;41944;52.078;-0.058;2022-10-22T02:52:57;100118.21;;;15.48;100.00
56070;BME280;41944;52.078;-0.058;2022-10-22T02:55:24;100124.17;;;15.56;100.00
56070;BME280;41944;52.078;-0.058;2022-10-22T02:57:51;100127.16;;;15.64;100.00
56070;BME280;41944;52.078;-0.058;2022-10-22T03:00:19;100126.29;;;15.65;100.00
56070;BME280;41944;52.078;-0.058;2022-10-22T03:02:47;100130.18;;;15.52;100.00
56070;BME280;41944;52.078;-0.058;2022-10-22T03:05:14;100136.85;;;15.41;100.00
56070;BME280;41944;52.078;-0.058;2022-10-22T03:07:42;100138.96;;;15.54;100.00
56070;BME280;41944;52.078;-0.058;2022-10-22T03:10:09;100145.82;;;15.52;100.00
56070;BME280;41944;52.078;-0.058;2022-10-22T03:12:38;100146.62;;;15.54;100.00
56070;BME280;41944;52.078;-0.058;2022-10-22T03:15:06;100146.67;;;15.59;100.00
56070;BME280;41944;52.078;-0.058;2022-10-22T03:17:33;100150.49;;;15.67;100.00
56070;BME280;41944;52.078;-0.058;2022-10-22T03:20:01;100157.12;;;15.66;100.00
56070;BME280;41944;52.078;-0.058;2022-10-22T03:22:31;100160.87;;;15.76;100.00
56070;BME280;41944;52.078;-0.058;2022-10-22T03:25:03;100167.60;;;15.74;100.00
56070;BME280;41944;52.078;-0.058;2022-10-22T03:27:33;100170.59;;;15.54;100.00
56070;BME280;41944;52.078;-0.058;2022-10-22T03:30:02;100171.74;;;15.60;100.00
56070;BME280;41944;52.078;-0.058;2022-10-22T03:32:29;100176.45;;;15.70;100.00
56070;BME280;41944;52.078;-0.058;2022-10-22T03:34:57;100178.34;;;15.73;100.00
56070;BME280;41944;52.078;-0.058;2022-10-22T03:37:25;100183.88;;;15.77;100.00
56070;BME280;41944;52.078;-0.058;2022-10-22T03:39:53;100190.29;;;15.80;100.00
56070;BME280;41944;52.078;-0.058;2022-10-22T03:42:21;100194.08;;;15.71;100.00
56070;BME280;41944;52.078;-0.058;2022-10-22T03:44:49;100199.97;;;15.77;100.00
56070;BME280;41944;52.078;-0.058;2022-10-22T03:47:16;100205.44;;;15.65;100.00
56070;BME280;41944;52.078;-0.058;2022-10-22T03:49:44;100207.82;;;15.86;100.00
56070;BME280;41944;52.078;-0.058;2022-10-22T03:52:13;100213.98;;;15.73;100.00
56070;BME280;41944;52.078;-0.058;2022-10-22T03:54:41;100217.61;;;15.76;100.00
56070;BME280;41944;52.078;-0.058;2022-10-22T03:57:09;100224.00;;;15.84;100.00
56070;BME280;41944;52.078;-0.058;2022-10-22T03:59:38;100230.01;;;15.84;100.00
56070;BME280;41944;52.078;-0.058;2022-10-22T04:02:06;100233.22;;;15.77;100.00
56070;BME280;41944;52.078;-0.058;2022-10-22T04:04:34;100237.86;;;15.89;100.00
56070;BME280;41944;52.078;-0.058;2022-10-22T04:07:01;100245.27;;;15.95;100.00
56070;BME280;41944;52.078;-0.058;2022-10-22T04:09:30;100250.65;;;15.99;100.00
56070;BME280;41944;52.078;-0.058;2022-10-22T04:11:58;100252.80;;;16.03;100.00
56070;BME280;41944;52.078;-0.058;2022-10-22T04:14:25;100254.56;;;16.05;100.00
56070;BME280;41944;52.078;-0.058;2022-10-22T04:16:53;100255.25;;;15.96;100.00
56070;BME280;41944;52.078;-0.058;2022-10-22T04:19:20;100260.33;;;16.10;99.97
56070;BME280;41944;52.078;-0.058;2022-10-22T04:21:48;100268.53;;;15.98;100.00
56070;BME280;41944;52.078;-0.058;2022-10-22T04:24:16;100275.22;;;16.04;99.31
56070;BME280;41944;52.078;-0.058;2022-10-22T04:26:43;100279.61;;;16.04;98.70
56070;BME280;41944;52.078;-0.058;2022-10-22T04:29:11;100277.78;;;15.91;99.29
56070;BME280;41944;52.078;-0.058;2022-10-22T04:31:38;100278.09;;;15.94;98.05
56070;BME280;41944;52.078;-0.058;2022-10-22T04:34:06;100278.73;;;15.93;97.32
56070;BME280;41944;52.078;-0.058;2022-10-22T04:36:34;100281.38;;;15.89;96.41
56070;BME280;41944;52.078;-0.058;2022-10-22T04:39:03;100286.11;;;15.86;96.18
56070;BME280;41944;52.078;-0.058;2022-10-22T04:41:32;100289.89;;;15.96;94.02
56070;BME280;41944;52.078;-0.058;2022-10-22T04:44:00;100293.39;;;15.97;93.53
56070;BME280;41944;52.078;-0.058;2022-10-22T04:46:29;100291.46;;;16.02;91.90
56070;BME280;41944;52.078;-0.058;2022-10-22T04:48:58;100293.28;;;15.99;91.44
56070;BME280;41944;52.078;-0.058;2022-10-22T04:51:26;100298.36;;;15.83;92.51
56070;BME280;41944;52.078;-0.058;2022-10-22T04:53:54;100302.42;;;15.76;92.62
56070;BME280;41944;52.078;-0.058;2022-10-22T04:56:23;100310.86;;;15.66;92.74
56070;BME280;41944;52.078;-0.058;2022-10-22T04:58:52;100318.37;;;15.43;93.79
56070;BME280;41944;52.078;-0.058;2022-10-22T05:01:22;100323.17;;;15.37;94.55
56070;BME280;41944;52.078;-0.058;2022-10-22T05:03:51;100328.13;;;15.42;94.21
56070;BME280;41944;52.078;-0.058;2022-10-22T05:06:20;100329.85;;;15.24;94.65
56070;BME280;41944;52.078;-0.058;2022-10-22T05:08:52;100331.05;;;15.16;95.06
56070;BME280;41944;52.078;-0.058;2022-10-22T05:11:29;100335.12;;;15.29;94.60
56070;BME280;41944;52.078;-0.058;2022-10-22T05:13:58;100339.22;;;15.18;94.25
56070;BME280;41944;52.078;-0.058;2022-10-22T05:16:27;100347.46;;;15.19;94.05
56070;BME280;41944;52.078;-0.058;2022-10-22T05:18:57;100345.82;;;15.06;94.78
56070;BME280;41944;52.078;-0.058;2022-10-22T05:21:25;100349.46;;;15.05;94.61
56070;BME280;41944;52.078;-0.058;2022-10-22T05:23:53;100350.94;;;14.95;94.59
56070;BME280;41944;52.078;-0.058;2022-10-22T05:26:22;100353.50;;;14.96;93.98
56070;BME280;41944;52.078;-0.058;2022-10-22T05:28:50;100360.70;;;15.01;93.39
56070;BME280;41944;52.078;-0.058;2022-10-22T05:31:18;100360.88;;;15.02;92.94
56070;BME280;41944;52.078;-0.058;2022-10-22T05:33:46;100360.94;;;15.03;93.07
56070;BME280;41944;52.078;-0.058;2022-10-22T05:36:15;100360.05;;;15.00;92.50
56070;BME280;41944;52.078;-0.058;2022-10-22T05:38:42;100364.38;;;14.92;92.57
56070;BME280;41944;52.078;-0.058;2022-10-22T05:41:12;100363.57;;;14.91;92.34
56070;BME280;41944;52.078;-0.058;2022-10-22T05:43:40;100366.50;;;14.86;92.24
56070;BME280;41944;52.078;-0.058;2022-10-22T05:46:08;100371.73;;;14.88;91.04
56070;BME280;41944;52.078;-0.058;2022-10-22T05:48:36;100373.45;;;14.80;91.64
56070;BME280;41944;52.078;-0.058;2022-10-22T05:51:06;100377.25;;;14.78;91.88
56070;BME280;41944;52.078;-0.058;2022-10-22T05:53:35;100380.62;;;14.67;91.80
56070;BME280;41944;52.078;-0.058;2022-10-22T05:56:06;100382.84;;;14.66;91.61
56070;BME280;41944;52.078;-0.058;2022-10-22T05:58:35;100388.47;;;14.57;91.98
56070;BME280;41944;52.078;-0.058;2022-10-22T06:01:03;100392.35;;;14.63;91.53
56070;BME280;41944;52.078;-0.058;2022-10-22T06:03:31;100398.19;;;14.58;90.95
56070;BME280;41944;52.078;-0.058;2022-10-22T06:05:59;100403.72;;;14.62;90.77
56070;BME280;41944;52.078;-0.058;2022-10-22T06:08:28;100409.76;;;14.41;91.72
56070;BME280;41944;52.078;-0.058;2022-10-22T06:10:56;100411.49;;;14.28;91.83
56070;BME280;41944;52.078;-0.058;2022-10-22T06:13:23;100417.46;;;14.10;92.66
56070;BME280;41944;52.078;-0.058;2022-10-22T06:15:51;100420.86;;;14.16;92.28
56070;BME280;41944;52.078;-0.058;2022-10-22T06:18:18;100428.83;;;14.08;93.04
56070;BME280;41944;52.078;-0.058;2022-10-22T06:20:46;100440.12;;;13.91;93.50
56070;BME280;41944;52.078;-0.058;2022-10-22T06:23:14;100439.86;;;13.78;93.93
56070;BME280;41944;52.078;-0.058;2022-10-22T06:25:42;100439.19;;;13.71;94.15
56070;BME280;41944;52.078;-0.058;2022-10-22T06:28:09;100438.64;;;13.68;94.55
56070;BME280;41944;52.078;-0.058;2022-10-22T06:30:37;100447.46;;;13.72;94.88
56070;BME280;41944;52.078;-0.058;2022-10-22T06:33:04;100449.67;;;13.79;93.94
56070;BME280;41944;52.078;-0.058;2022-10-22T06:35:32;100453.23;;;13.64;94.57
56070;BME280;41944;52.078;-0.058;2022-10-22T06:38:00;100454.11;;;13.68;95.16
56070;BME280;41944;52.078;-0.058;2022-10-22T06:40:27;100458.47;;;13.79;95.05
56070;BME280;41944;52.078;-0.058;2022-10-22T06:42:57;100464.66;;;13.56;95.94
56070;BME280;41944;52.078;-0.058;2022-10-22T06:45:25;100470.37;;;13.80;95.36
56070;BME280;41944;52.078;-0.058;2022-10-22T06:47:52;100473.02;;;13.94;94.68
56070;BME280;41944;52.078;-0.058;2022-10-22T06:50:20;100476.67;;;13.91;94.83
56070;BME280;41944;52.078;-0.058;2022-10-22T06:52:48;100484.16;;;14.02;94.57
56070;BME280;41944;52.078;-0.058;2022-10-22T06:55:16;100492.76;;;13.90;94.89
56070;BME280;41944;52.078;-0.058;2022-10-22T06:57:43;100497.66;;;13.94;95.09
56070;BME280;41944;52.078;-0.058;2022-10-22T07:00:12;100500.52;;;13.93;95.46
56070;BME280;41944;52.078;-0.058;2022-10-22T07:02:40;100506.01;;;14.04;95.29
56070;BME280;41944;52.078;-0.058;2022-10-22T07:05:08;100503.05;;;14.07;94.87
56070;BME280;41944;52.078;-0.058;2022-10-22T07:07:35;100509.21;;;14.05;94.62
56070;BME280;41944;52.078;-0.058;2022-10-22T07:10:04;100514.98;;;14.12;94.45
56070;BME280;41944;52.078;-0.058;2022-10-22T07:12:33;100514.90;;;14.33;93.36
56070;BME280;41944;52.078;-0.058;2022-10-22T07:15:00;100518.80;;;14.33;93.60
56070;BME280;41944;52.078;-0.058;2022-10-22T07:17:28;100529.42;;;14.30;93.60
56070;BME280;41944;52.078;-0.058;2022-10-22T07:19:56;100534.90;;;14.46;92.72
56070;BME280;41944;52.078;-0.058;2022-10-22T07:22:23;100544.13;;;14.50;93.07
56070;BME280;41944;52.078;-0.058;2022-10-22T07:24:51;100551.44;;;14.51;92.74
56070;BME280;41944;52.078;-0.058;2022-10-22T07:27:18;100556.31;;;14.58;92.34
56070;BME280;41944;52.078;-0.058;2022-10-22T07:29:46;100560.98;;;14.56;92.19
56070;BME280;41944;52.078;-0.058;2022-10-22T07:32:14;100565.78;;;14.59;92.53
56070;BME280;41944;52.078;-0.058;2022-10-22T07:34:41;100568.64;;;14.50;92.50
56070;BME280;41944;52.078;-0.058;2022-10-22T07:37:08;100569.49;;;14.44;92.99
56070;BME280;41944;52.078;-0.058;2022-10-22T07:39:36;100570.17;;;14.38;93.11
56070;BME280;41944;52.078;-0.058;2022-10-22T07:42:04;100571.29;;;14.35;93.70
56070;BME280;41944;52.078;-0.058;2022-10-22T07:44:31;100576.05;;;14.47;93.59
56070;BME280;41944;52.078;-0.058;2022-10-22T07:46:59;100582.20;;;14.46;93.37
56070;BME280;41944;52.078;-0.058;2022-10-22T07:49:27;100587.49;;;14.50;93.52
56070;BME280;41944;52.078;-0.058;2022-10-22T07:51:54;100593.94;;;14.49;93.58
56070;BME280;41944;52.078;-0.058;2022-10-22T07:54:22;100599.60;;;14.58;93.39
56070;BME280;41944;52.078;-0.058;2022-10-22T07:56:50;100609.63;;;14.64;92.48
56070;BME280;41944;52.078;-0.058;2022-10-22T07:59:17;100613.67;;;14.68;92.58
56070;BME280;41944;52.078;-0.058;2022-10-22T08:01:44;100614.79;;;14.55;93.05
56070;BME280;41944;52.078;-0.058;2022-10-22T08:04:12;100616.47;;;14.49;93.77
56070;BME280;41944;52.078;-0.058;2022-10-22T08:06:40;100621.62;;;14.66;93.12
56070;BME280;41944;52.078;-0.058;2022-10-22T08:09:08;100630.63;;;14.68;93.07
56070;BME280;41944;52.078;-0.058;2022-10-22T08:11:35;100632.26;;;14.77;92.36
56070;BME280;41944;52.078;-0.058;2022-10-22T08:14:03;100633.82;;;14.79;92.40
56070;BME280;41944;52.078;-0.058;2022-10-22T08:16:31;100638.31;;;14.58;93.76
56070;BME280;41944;52.078;-0.058;2022-10-22T08:18:58;100641.46;;;14.51;94.27
56070;BME280;41944;52.078;-0.058;2022-10-22T08:21:26;100640.89;;;14.67;93.75
56070;BME280;41944;52.078;-0.058;2022-10-22T08:23:53;100637.31;;;14.60;93.66
56070;BME280;41944;52.078;-0.058;2022-10-22T08:26:21;100640.00;;;14.56;94.48
56070;BME280;41944;52.078;-0.058;2022-10-22T08:28:49;100643.31;;;14.67;94.60
56070;BME280;41944;52.078;-0.058;2022-10-22T08:31:16;100642.23;;;14.63;94.55
56070;BME280;41944;52.078;-0.058;2022-10-22T08:33:44;100644.49;;;14.71;93.76
56070;BME280;41944;52.078;-0.058;2022-10-22T08:36:12;100652.18;;;14.81;93.29
56070;BME280;41944;52.078;-0.058;2022-10-22T08:38:39;100656.68;;;14.78;93.41
56070;BME280;41944;52.078;-0.058;2022-10-22T08:41:10;100662.84;;;14.96;92.85
56070;BME280;41944;52.078;-0.058;2022-10-22T08:44:28;100672.34;;;15.10;91.75
56070;BME280;41944;52.078;-0.058;2022-10-22T08:47:15;100671.37;;;15.24;91.33
56070;BME280;41944;52.078;-0.058;2022-10-22T08:49:44;100675.40;;;15.36;90.65
56070;BME280;41944;52.078;-0.058;2022-10-22T08:52:15;100671.38;;;15.44;90.37
56070;BME280;41944;52.078;-0.058;2022-10-22T08:54:50;100671.09;;;15.57;89.44
56070;BME280;41944;52.078;-0.058;2022-10-22T08:57:32;100671.71;;;15.62;89.21
56070;BME280;41944;52.078;-0.058;2022-10-22T09:00:05;100674.63;;;15.71;88.77
56070;BME280;41944;52.078;-0.058;2022-10-22T09:02:47;100667.21;;;15.85;87.85
56070;BME280;41944;52.078;-0.058;2022-10-22T09:05:30;100674.99;;;15.90;87.51
56070;BME280;41944;52.078;-0.058;2022-10-22T09:07:59;100675.80;;;15.97;87.18
56070;BME280;41944;52.078;-0.058;2022-10-22T09:10:32;100676.36;;;16.05;86.75
56070;BME280;41944;52.078;-0.058;2022-10-22T09:13:01;100680.88;;;16.10;87.48
56070;BME280;41944;52.078;-0.058;2022-10-22T09:15:29;100682.41;;;16.30;85.43
56070;BME280;41944;52.078;-0.058;2022-10-22T09:18:06;100691.28;;;16.43;84.35
56070;BME280;41944;52.078;-0.058;2022-10-22T09:20:43;100691.09;;;16.56;83.68
56070;BME280;41944;52.078;-0.058;2022-10-22T09:23:23;100689.46;;;16.56;84.19
56070;BME280;41944;52.078;-0.058;2022-10-22T09:25:56;100692.21;;;16.61;84.40
56070;BME280;41944;52.078;-0.058;2022-10-22T09:28:24;100697.20;;;16.78;83.53
56070;BME280;41944;52.078;-0.058;2022-10-22T09:30:51;100698.51;;;16.85;81.83
56070;BME280;41944;52.078;-0.058;2022-10-22T09:33:23;100698.10;;;16.96;81.37
56070;BME280;41944;52.078;-0.058;2022-10-22T09:35:53;100697.33;;;16.88;81.59
56070;BME280;41944;52.078;-0.058;2022-10-22T09:38:26;100700.82;;;16.91;82.50
56070;BME280;41944;52.078;-0.058;2022-10-22T09:40:56;100704.19;;;16.98;82.14
56070;BME280;41944;52.078;-0.058;2022-10-22T09:43:24;100708.94;;;17.00;81.71
56070;BME280;41944;52.078;-0.058;2022-10-22T09:45:56;100711.87;;;17.14;81.34
56070;BME280;41944;52.078;-0.058;2022-10-22T09:48:29;100715.15;;;17.25;78.29
56070;BME280;41944;52.078;-0.058;2022-10-22T09:51:01;100720.66;;;17.35;77.88
56070;BME280;41944;52.078;-0.058;2022-10-22T09:53:31;100723.98;;;17.40;78.02
56070;BME280;41944;52.078;-0.058;2022-10-22T09:56:07;100721.66;;;17.46;77.61
56070;BME280;41944;52.078;-0.058;2022-10-22T09:58:41;100719.15;;;17.57;76.67
56070;BME280;41944;52.078;-0.058;2022-10-22T10:01:16;100724.30;;;17.61;77.50
56070;BME280;41944;52.078;-0.058;2022-10-22T10:03:44;100733.43;;;17.67;77.25
56070;BME280;41944;52.078;-0.058;2022-10-22T10:06:17;100735.48;;;17.70;76.40
56070;BME280;41944;52.078;-0.058;2022-10-22T10:08:45;100737.83;;;17.79;75.77
56070;BME280;41944;52.078;-0.058;2022-10-22T10:11:18;100739.35;;;17.79;75.55
56070;BME280;41944;52.078;-0.058;2022-10-22T10:14:00;100745.22;;;17.75;75.11
56070;BME280;41944;52.078;-0.058;2022-10-22T10:16:40;100745.37;;;17.69;75.85
56070;BME280;41944;52.078;-0.058;2022-10-22T10:19:20;100748.42;;;17.67;76.30
56070;BME280;41944;52.078;-0.058;2022-10-22T10:21:56;100752.60;;;17.67;76.61
56070;BME280;41944;52.078;-0.058;2022-10-22T10:24:33;100759.73;;;17.85;75.55
56070;BME280;41944;52.078;-0.058;2022-10-22T10:27:08;100758.24;;;17.83;75.68
56070;BME280;41944;52.078;-0.058;2022-10-22T10:29:43;100762.56;;;17.87;75.89
56070;BME280;41944;52.078;-0.058;2022-10-22T10:32:24;100769.19;;;17.88;76.22
56070;BME280;41944;52.078;-0.058;2022-10-22T10:34:59;100768.34;;;18.00;74.60
56070;BME280;41944;52.078;-0.058;2022-10-22T10:37:33;100776.11;;;18.13;74.65
56070;BME280;41944;52.078;-0.058;2022-10-22T10:40:18;100775.00;;;18.24;72.93
56070;BME280;41944;52.078;-0.058;2022-10-22T10:42:54;100774.25;;;18.29;73.07
56070;BME280;41944;52.078;-0.058;2022-10-22T10:45:30;100779.50;;;18.37;73.20
56070;BME280;41944;52.078;-0.058;2022-10-22T10:48:16;100782.35;;;18.49;71.91
56070;BME280;41944;52.078;-0.058;2022-10-22T10:50:57;100785.33;;;18.46;71.42
56070;BME280;41944;52.078;-0.058;2022-10-22T10:53:39;100790.61;;;18.40;71.41
56070;BME280;41944;52.078;-0.058;2022-10-22T10:56:24;100790.83;;;18.41;71.99
56070;BME280;41944;52.078;-0.058;2022-10-22T10:59:02;100793.81;;;18.33;72.03
56070;BME280;41944;52.078;-0.058;2022-10-22T11:01:40;100795.33;;;18.43;72.38
56070;BME280;41944;52.078;-0.058;2022-10-22T11:04:37;100793.41;;;18.40;71.51
56070;BME280;41944;52.078;-0.058;2022-10-22T11:07:11;100795.13;;;18.42;71.12
56070;BME280;41944;52.078;-0.058;2022-10-22T11:09:47;100797.26;;;18.11;72.77
56070;BME280;41944;52.078;-0.058;2022-10-22T11:12:20;100796.36;;;18.13;72.92
56070;BME280;41944;52.078;-0.058;2022-10-22T11:14:57;100795.43;;;18.22;71.24
56070;BME280;41944;52.078;-0.058;2022-10-22T11:17:32;100796.58;;;18.24;72.90
56070;BME280;41944;52.078;-0.058;2022-10-22T11:20:06;100795.12;;;18.31;73.02
56070;BME280;41944;52.078;-0.058;2022-10-22T11:22:43;100795.63;;;18.31;72.46
56070;BME280;41944;52.078;-0.058;2022-10-22T11:25:16;100795.63;;;18.26;72.81
56070;BME280;41944;52.078;-0.058;2022-10-22T11:27:49;100794.64;;;18.29;72.31
56070;BME280;41944;52.078;-0.058;2022-10-22T11:30:19;100797.25;;;18.19;72.54
56070;BME280;41944;52.078;-0.058;2022-10-22T11:32:50;100796.27;;;18.04;72.76
56070;BME280;41944;52.078;-0.058;2022-10-22T11:35:23;100795.10;;;18.14;72.40
56070;BME280;41944;52.078;-0.058;2022-10-22T11:37:57;100794.32;;;18.13;72.44
56070;BME280;41944;52.078;-0.058;2022-10-22T11:40:32;100795.43;;;18.12;73.52
56070;BME280;41944;52.078;-0.058;2022-10-22T11:43:05;100798.50;;;18.26;72.72
56070;BME280;41944;52.078;-0.058;2022-10-22T11:45:34;100798.05;;;18.40;71.66
56070;BME280;41944;52.078;-0.058;2022-10-22T11:48:15;100797.49;;;18.32;72.41
56070;BME280;41944;52.078;-0.058;2022-10-22T11:50:46;100796.84;;;18.41;71.97
56070;BME280;41944;52.078;-0.058;2022-10-22T11:53:18;100793.58;;;18.46;72.82
56070;BME280;41944;52.078;-0.058;2022-10-22T11:55:48;100792.00;;;18.49;73.25
56070;BME280;41944;52.078;-0.058;2022-10-22T11:58:38;100792.94;;;18.69;72.91
56070;BME280;41944;52.078;-0.058;2022-10-22T12:01:24;100790.62;;;18.79;72.07
56070;BME280;41944;52.078;-0.058;2022-10-22T12:04:14;100789.79;;;18.68;72.83
56070;BME280;41944;52.078;-0.058;2022-10-22T12:07:00;100789.67;;;18.77;71.21
56070;BME280;41944;52.078;-0.058;2022-10-22T12:09:29;100786.75;;;18.76;72.82
56070;BME280;41944;52.078;-0.058;2022-10-22T12:12:04;100784.86;;;18.87;72.60
56070;BME280;41944;52.078;-0.058;2022-10-22T12:14:51;100789.57;;;18.94;71.42
56070;BME280;41944;52.078;-0.058;2022-10-22T12:17:20;100787.21;;;18.97;70.50
56070;BME280;41944;52.078;-0.058;2022-10-22T12:19:53;100781.09;;;18.82;73.20
56070;BME280;41944;52.078;-0.058;2022-10-22T12:22:27;100779.00;;;18.82;73.17
56070;BME280;41944;52.078;-0.058;2022-10-22T12:24:58;100776.84;;;18.97;71.21
56070;BME280;41944;52.078;-0.058;2022-10-22T12:27:32;100774.03;;;18.95;71.62
56070;BME280;41944;52.078;-0.058;2022-10-22T12:30:01;100776.38;;;19.10;71.32
56070;BME280;41944;52.078;-0.058;2022-10-22T12:32:34;100775.04;;;19.27;70.39
56070;BME280;41944;52.078;-0.058;2022-10-22T12:35:05;100775.29;;;19.33;69.41
56070;BME280;41944;52.078;-0.058;2022-10-22T12:37:34;100779.68;;;19.35;70.42
56070;BME280;41944;52.078;-0.058;2022-10-22T12:40:01;100781.16;;;19.22;71.33
56070;BME280;41944;52.078;-0.058;2022-10-22T12:42:29;100781.20;;;19.26;70.61
56070;BME280;41944;52.078;-0.058;2022-10-22T12:44:56;100777.32;;;19.31;69.97
56070;BME280;41944;52.078;-0.058;2022-10-22T12:47:24;100776.19;;;19.21;70.16
56070;BME280;41944;52.078;-0.058;2022-10-22T12:49:51;100772.36;;;19.30;69.32
56070;BME280;41944;52.078;-0.058;2022-10-22T12:52:21;100773.22;;;19.29;70.44
56070;BME280;41944;52.078;-0.058;2022-10-22T12:54:50;100772.31;;;19.23;70.61
56070;BME280;41944;52.078;-0.058;2022-10-22T12:57:19;100772.50;;;19.04;71.90